Home   Weather   United Kingdom   Stoke-on-Trent   Past weeks
Flag for United Kingdom

Past Weather in Stoke-on-Trent, England, United Kingdom — Yesterday and Last 2 Weeks

Currently: 37 °F. Chilly. (Weather station: Manchester Airport, United Kingdom). See more current weather

Past Weather in Stoke-on-Trent — Graph

°F

Stoke-on-Trent Temperature Yesterday

Maximum temperature yesterday: 55 °F (at 2:50 pm)
Minimum temperature yesterday: 30 °F (at 4:50 am)
Average temperature yesterday: 44 °F

High & Low Weather Summary for the Past Weeks

 TemperatureHumidityPressure
High55 °F (Apr 4, 1:50 pm)100% (Apr 4, 2:20 am)30.57 "Hg (Apr 4, 2:20 am)
Low25 °F (Apr 7, 12:20 am)26% (Apr 5, 12:20 pm)29.86 "Hg (Apr 8, 11:20 pm)
Average41 °F67%30.28 "Hg
* Reported Apr 1 11:20 pm — Apr 16 11:50 pm, Stoke-on-Trent. Weather by CustomWeather, © 2021

Note: Actual official high and low records may vary slightly from our data, if they occured in-between our weather recording intervals... More about our weather records

Stoke-on-Trent Weather History for the Previous 24 Hours

Scroll right to see more
 ConditionsComfort  
Time TempWeatherWind HumidityBarometerVisibility
11:50 pm
Fri, Apr 16
39 °FChilly.1 mph65%30.45 "HgN/A
11:20 pm43 °FQuite cool.1 mph61%30.45 "HgN/A
10:50 pm43 °FQuite cool.2 mph61%30.45 "HgN/A
10:20 pm45 °FQuite cool.1 mph57%30.45 "HgN/A
9:50 pm46 °FCool.3 mph53%30.45 "HgN/A
9:20 pm48 °FCool.2 mph54%30.42 "HgN/A
8:50 pm48 °FCool.2 mph54%30.42 "HgN/A
7:50 pm50 °FCool.2 mph50%30.42 "HgN/A
7:20 pm52 °FCool.2 mph47%30.39 "HgN/A
6:50 pm52 °FCool.3 mph47%30.39 "HgN/A
6:20 pm54 °FCool.2 mph41%30.39 "HgN/A
5:50 pm55 °FRefreshingly cool.3 mph38%30.39 "HgN/A
5:20 pm54 °FCool.3 mph41%30.39 "HgN/A
4:50 pm54 °FCool.2 mph38%30.39 "HgN/A
4:20 pm54 °FCool.5 mph38%30.42 "HgN/A
3:50 pm54 °FCool.3 mph38%30.42 "HgN/A
3:20 pm54 °FCool.5 mph38%30.42 "HgN/A
2:50 pm55 °FRefreshingly cool.5 mph36%30.42 "HgN/A
2:20 pm54 °FCool.2 mph38%30.45 "HgN/A
1:50 pm52 °FCool.5 mph41%30.45 "HgN/A
1:20 pm50 °FCool.5 mph43%30.45 "HgN/A
12:50 pm50 °FPartly sunny.2 mph43%30.45 "HgN/A
12:20 pm52 °FPassing clouds.6 mph44%30.48 "HgN/A
11:50 am50 °FCool.3 mph47%30.48 "HgN/A
11:20 am48 °FCool.5 mph50%30.48 "HgN/A
10:50 am48 °FCool.3 mph46%30.48 "HgN/A
10:20 am48 °FCool.5 mph46%30.48 "HgN/A
9:50 am46 °FCool.5 mph50%30.48 "HgN/A
9:20 am45 °FQuite cool.5 mph61%30.48 "HgN/A
8:50 am45 °FQuite cool.5 mph61%30.48 "HgN/A
8:20 am43 °FQuite cool.2 mph61%30.48 "HgN/A
7:50 am39 °FChilly.2 mph70%30.48 "HgN/A
7:20 am36 °FChilly.2 mph75%30.48 "HgN/A
6:50 am34 °FChilly.3 mph81%30.48 "HgN/A
6:20 am30 °FChilly.3 mph86%30.48 "HgN/A
5:50 am30 °FChilly.5 mph86%30.48 "HgN/A
5:20 am30 °FChilly.3 mph86%30.48 "HgN/A
4:50 am30 °FChilly.3 mph86%30.48 "HgN/A
4:20 am32 °FChilly.1 mph80%30.48 "HgN/A
3:50 am34 °FChilly.1 mph75%30.48 "HgN/A
3:20 am36 °FChilly.1 mph70%30.48 "HgN/A
2:50 am34 °FChilly.2 mph75%30.48 "HgN/A
2:20 am36 °FChilly.1 mph75%30.48 "HgN/A
1:50 am36 °FChilly.3 mph75%30.48 "HgN/A
1:20 am37 °FChilly.3 mph70%30.48 "HgN/A
Weather by CustomWeather, © 2021

See weather overview